sensor_id;sensor_type;location;lat;lon;timestamp;pressure;altitude;pressure_sealevel;temperature;humidity
6393;BME280;3229;42.674;23.282;2023-09-12T00:01:11;94818.78;;;16.58;69.57
6393;BME280;3229;42.674;23.282;2023-09-12T00:03:38;94813.16;;;16.54;69.85
6393;BME280;3229;42.674;23.282;2023-09-12T00:06:05;94818.84;;;16.49;70.09
6393;BME280;3229;42.674;23.282;2023-09-12T00:08:31;94815.00;;;16.45;70.15
6393;BME280;3229;42.674;23.282;2023-09-12T00:11:00;94816.13;;;16.43;70.21
6393;BME280;3229;42.674;23.282;2023-09-12T00:13:27;94819.03;;;16.40;70.35
6393;BME280;3229;42.674;23.282;2023-09-12T00:15:54;94822.78;;;16.37;70.42
6393;BME280;3229;42.674;23.282;2023-09-12T00:18:22;94814.56;;;16.34;70.61
6393;BME280;3229;42.674;23.282;2023-09-12T00:20:50;94820.06;;;16.30;71.07
6393;BME280;3229;42.674;23.282;2023-09-12T00:23:18;94818.66;;;16.28;71.21
6393;BME280;3229;42.674;23.282;2023-09-12T00:25:45;94750.81;;;15.80;71.39
6393;BME280;3229;42.674;23.282;2023-09-12T00:28:11;94822.69;;;16.22;71.48
6393;BME280;3229;42.674;23.282;2023-09-12T00:30:38;94822.06;;;16.20;71.67
6393;BME280;3229;42.674;23.282;2023-09-12T00:33:05;94823.03;;;16.19;71.78
6393;BME280;3229;42.674;23.282;2023-09-12T00:35:33;94823.38;;;16.16;71.96
6393;BME280;3229;42.674;23.282;2023-09-12T00:38:00;94833.69;;;16.16;71.82
6393;BME280;3229;42.674;23.282;2023-09-12T00:40:27;94811.34;;;16.00;72.15
6393;BME280;3229;42.674;23.282;2023-09-12T00:42:54;94830.00;;;16.11;72.31
6393;BME280;3229;42.674;23.282;2023-09-12T00:45:21;94835.19;;;16.11;72.28
6393;BME280;3229;42.674;23.282;2023-09-12T00:47:48;94834.34;;;16.10;72.26
6393;BME280;3229;42.674;23.282;2023-09-12T00:50:16;94829.06;;;16.03;72.34
6393;BME280;3229;42.674;23.282;2023-09-12T00:52:45;94828.25;;;16.03;72.36
6393;BME280;3229;42.674;23.282;2023-09-12T00:55:12;94826.66;;;16.02;72.44
6393;BME280;3229;42.674;23.282;2023-09-12T00:57:39;94837.13;;;16.00;72.17
6393;BME280;3229;42.674;23.282;2023-09-12T01:00:07;94844.41;;;15.97;72.29
6393;BME280;3229;42.674;23.282;2023-09-12T01:02:37;94842.31;;;15.92;72.75
6393;BME280;3229;42.674;23.282;2023-09-12T01:05:06;94837.34;;;15.91;72.72
6393;BME280;3229;42.674;23.282;2023-09-12T01:07:33;94840.25;;;15.88;72.64
6393;BME280;3229;42.674;23.282;2023-09-12T01:10:01;94843.78;;;15.87;72.82
6393;BME280;3229;42.674;23.282;2023-09-12T01:12:29;94837.88;;;15.78;72.96
6393;BME280;3229;42.674;23.282;2023-09-12T01:14:56;94842.53;;;15.83;72.92
6393;BME280;3229;42.674;23.282;2023-09-12T01:17:23;94838.97;;;15.84;73.04
6393;BME280;3229;42.674;23.282;2023-09-12T01:19:49;94845.56;;;15.86;72.45
6393;BME280;3229;42.674;23.282;2023-09-12T01:22:40;94846.22;;;15.80;72.44
6393;BME280;3229;42.674;23.282;2023-09-12T01:25:45;94820.31;;;15.57;72.35
6393;BME280;3229;42.674;23.282;2023-09-12T01:28:23;94850.59;;;15.71;72.26
6393;BME280;3229;42.674;23.282;2023-09-12T01:30:51;94852.56;;;15.69;72.01
6393;BME280;3229;42.674;23.282;2023-09-12T01:33:18;94856.41;;;15.65;72.10
6393;BME280;3229;42.674;23.282;2023-09-12T01:35:46;94853.84;;;15.65;72.17
6393;BME280;3229;42.674;23.282;2023-09-12T01:38:13;94848.97;;;15.62;72.30
6393;BME280;3229;42.674;23.282;2023-09-12T01:40:46;94850.94;;;15.60;72.30
6393;BME280;3229;42.674;23.282;2023-09-12T01:43:15;94850.28;;;15.58;72.22
6393;BME280;3229;42.674;23.282;2023-09-12T01:45:45;94847.06;;;15.56;72.29
6393;BME280;3229;42.674;23.282;2023-09-12T01:48:13;94846.28;;;15.55;72.52
6393;BME280;3229;42.674;23.282;2023-09-12T01:50:44;94850.78;;;15.53;72.59
6393;BME280;3229;42.674;23.282;2023-09-12T01:53:11;94853.53;;;15.52;72.58
6393;BME280;3229;42.674;23.282;2023-09-12T01:55:39;94848.69;;;15.49;72.74
6393;BME280;3229;42.674;23.282;2023-09-12T01:58:07;94849.03;;;15.46;72.98
6393;BME280;3229;42.674;23.282;2023-09-12T02:00:34;94851.94;;;15.43;73.47
6393;BME280;3229;42.674;23.282;2023-09-12T02:03:04;94848.88;;;15.39;73.58
6393;BME280;3229;42.674;23.282;2023-09-12T02:05:31;94853.41;;;15.37;73.92
6393;BME280;3229;42.674;23.282;2023-09-12T02:07:58;94854.84;;;15.31;74.19
6393;BME280;3229;42.674;23.282;2023-09-12T02:10:25;94863.72;;;15.29;73.98
6393;BME280;3229;42.674;23.282;2023-09-12T02:12:52;94857.91;;;15.27;74.41
6393;BME280;3229;42.674;23.282;2023-09-12T02:15:19;94852.91;;;15.25;74.43
6393;BME280;3229;42.674;23.282;2023-09-12T02:17:46;94855.63;;;15.24;74.77
6393;BME280;3229;42.674;23.282;2023-09-12T02:20:17;94859.03;;;15.24;74.78
6393;BME280;3229;42.674;23.282;2023-09-12T02:22:44;94859.97;;;15.23;74.71
6393;BME280;3229;42.674;23.282;2023-09-12T02:25:11;94850.03;;;15.20;75.05
6393;BME280;3229;42.674;23.282;2023-09-12T02:27:38;94840.03;;;15.09;75.24
6393;BME280;3229;42.674;23.282;2023-09-12T02:30:05;94858.06;;;15.17;75.50
6393;BME280;3229;42.674;23.282;2023-09-12T02:32:33;94844.38;;;15.09;75.50
6393;BME280;3229;42.674;23.282;2023-09-12T02:35:08;94859.97;;;15.15;75.34
6393;BME280;3229;42.674;23.282;2023-09-12T02:37:39;94863.41;;;15.16;75.81
6393;BME280;3229;42.674;23.282;2023-09-12T02:40:07;94865.13;;;15.15;76.03
6393;BME280;3229;42.674;23.282;2023-09-12T02:42:36;94858.56;;;15.13;76.10
6393;BME280;3229;42.674;23.282;2023-09-12T02:45:04;94860.34;;;15.12;76.12
6393;BME280;3229;42.674;23.282;2023-09-12T02:47:31;94863.03;;;15.11;76.12
6393;BME280;3229;42.674;23.282;2023-09-12T02:49:57;94859.03;;;15.08;76.45
6393;BME280;3229;42.674;23.282;2023-09-12T02:52:24;94863.38;;;15.08;76.27
6393;BME280;3229;42.674;23.282;2023-09-12T02:54:52;94862.72;;;15.05;76.30
6393;BME280;3229;42.674;23.282;2023-09-12T02:57:19;94854.38;;;15.03;76.60
6393;BME280;3229;42.674;23.282;2023-09-12T02:59:46;94851.47;;;14.98;76.44
6393;BME280;3229;42.674;23.282;2023-09-12T03:02:13;94859.84;;;15.00;76.87
6393;BME280;3229;42.674;23.282;2023-09-12T03:04:39;94852.28;;;14.99;76.86
6393;BME280;3229;42.674;23.282;2023-09-12T03:07:06;94859.22;;;14.98;76.75
6393;BME280;3229;42.674;23.282;2023-09-12T03:09:33;94862.72;;;14.97;76.84
6393;BME280;3229;42.674;23.282;2023-09-12T03:12:02;94862.09;;;14.95;77.25
6393;BME280;3229;42.674;23.282;2023-09-12T03:14:29;94847.59;;;14.86;77.12
6393;BME280;3229;42.674;23.282;2023-09-12T03:16:56;94857.41;;;14.91;77.40
6393;BME280;3229;42.674;23.282;2023-09-12T03:19:23;94835.03;;;14.75;77.84
6393;BME280;3229;42.674;23.282;2023-09-12T03:21:49;94864.00;;;14.85;77.76
6393;BME280;3229;42.674;23.282;2023-09-12T03:24:16;94854.53;;;14.86;77.96
6393;BME280;3229;42.674;23.282;2023-09-12T03:26:44;94866.56;;;14.85;77.94
6393;BME280;3229;42.674;23.282;2023-09-12T03:29:12;94864.00;;;14.85;78.02
6393;BME280;3229;42.674;23.282;2023-09-12T03:31:39;94864.16;;;14.84;77.94
6393;BME280;3229;42.674;23.282;2023-09-12T03:34:06;94865.31;;;14.81;77.99
6393;BME280;3229;42.674;23.282;2023-09-12T03:36:33;94865.31;;;14.81;78.10
6393;BME280;3229;42.674;23.282;2023-09-12T03:38:59;94869.78;;;14.79;77.87
6393;BME280;3229;42.674;23.282;2023-09-12T03:41:26;94866.72;;;14.75;78.06
6393;BME280;3229;42.674;23.282;2023-09-12T03:43:53;94867.69;;;14.74;77.75
6393;BME280;3229;42.674;23.282;2023-09-12T03:46:22;94808.53;;;14.24;78.03
6393;BME280;3229;42.674;23.282;2023-09-12T03:48:49;94839.53;;;14.57;77.92
6393;BME280;3229;42.674;23.282;2023-09-12T03:51:16;94870.75;;;14.70;78.05
6393;BME280;3229;42.674;23.282;2023-09-12T03:53:42;94874.44;;;14.67;77.86
6393;BME280;3229;42.674;23.282;2023-09-12T03:56:09;94869.44;;;14.66;77.80
6393;BME280;3229;42.674;23.282;2023-09-12T03:58:37;94872.19;;;14.64;77.77
6393;BME280;3229;42.674;23.282;2023-09-12T04:01:04;94874.91;;;14.63;77.78
6393;BME280;3229;42.674;23.282;2023-09-12T04:03:32;94795.66;;;14.08;78.36
6393;BME280;3229;42.674;23.282;2023-09-12T04:05:59;94871.50;;;14.54;78.64
6393;BME280;3229;42.674;23.282;2023-09-12T04:08:26;94878.72;;;14.50;78.83
6393;BME280;3229;42.674;23.282;2023-09-12T04:10:52;94872.78;;;14.50;79.42
6393;BME280;3229;42.674;23.282;2023-09-12T04:13:19;94879.72;;;14.49;79.55
6393;BME280;3229;42.674;23.282;2023-09-12T04:15:46;94872.78;;;14.50;79.73
6393;BME280;3229;42.674;23.282;2023-09-12T04:18:13;94874.25;;;14.52;79.57
6393;BME280;3229;42.674;23.282;2023-09-12T04:20:41;94874.88;;;14.54;79.54
6393;BME280;3229;42.674;23.282;2023-09-12T04:23:08;94882.59;;;14.54;79.77
6393;BME280;3229;42.674;23.282;2023-09-12T04:25:35;94876.66;;;14.54;79.58
6393;BME280;3229;42.674;23.282;2023-09-12T04:28:02;94877.81;;;14.60;79.64
6393;BME280;3229;42.674;23.282;2023-09-12T04:30:29;94879.13;;;14.64;79.61
6393;BME280;3229;42.674;23.282;2023-09-12T04:32:55;94883.13;;;14.66;79.45
6393;BME280;3229;42.674;23.282;2023-09-12T04:35:22;94886.84;;;14.72;79.52
6393;BME280;3229;42.674;23.282;2023-09-12T04:37:51;94885.56;;;14.76;79.39
6393;BME280;3229;42.674;23.282;2023-09-12T04:40:18;94879.94;;;14.80;79.53
6393;BME280;3229;42.674;23.282;2023-09-12T04:42:45;94884.28;;;14.88;79.14
6393;BME280;3229;42.674;23.282;2023-09-12T04:45:12;94892.19;;;14.95;79.18
6393;BME280;3229;42.674;23.282;2023-09-12T04:47:38;94884.78;;;15.00;79.03
6393;BME280;3229;42.674;23.282;2023-09-12T04:50:06;94892.66;;;15.06;78.75
6393;BME280;3229;42.674;23.282;2023-09-12T04:52:33;94890.28;;;15.13;78.11
6393;BME280;3229;42.674;23.282;2023-09-12T04:55:01;94895.59;;;15.20;78.02
6393;BME280;3229;42.674;23.282;2023-09-12T04:57:29;94887.03;;;15.27;77.73
6393;BME280;3229;42.674;23.282;2023-09-12T04:59:56;94893.47;;;15.40;77.20
6393;BME280;3229;42.674;23.282;2023-09-12T05:02:23;94892.19;;;15.52;76.65
6393;BME280;3229;42.674;23.282;2023-09-12T05:04:50;94889.44;;;15.70;76.08
6393;BME280;3229;42.674;23.282;2023-09-12T05:07:17;94900.34;;;15.96;74.99
6393;BME280;3229;42.674;23.282;2023-09-12T05:09:44;94899.00;;;16.17;73.84
6393;BME280;3229;42.674;23.282;2023-09-12T05:12:12;94899.34;;;16.45;72.65
6393;BME280;3229;42.674;23.282;2023-09-12T05:14:39;94894.88;;;16.70;71.71
6393;BME280;3229;42.674;23.282;2023-09-12T05:17:06;94892.28;;;17.01;70.73
6393;BME280;3229;42.674;23.282;2023-09-12T05:19:32;94858.19;;;17.05;69.72
6393;BME280;3229;42.674;23.282;2023-09-12T05:21:59;94889.16;;;17.51;68.53
6393;BME280;3229;42.674;23.282;2023-09-12T05:24:26;94900.19;;;17.83;67.23
6393;BME280;3229;42.674;23.282;2023-09-12T05:26:53;94899.25;;;18.14;65.72
6393;BME280;3229;42.674;23.282;2023-09-12T05:29:21;94900.13;;;18.36;65.08
6393;BME280;3229;42.674;23.282;2023-09-12T05:31:47;94895.59;;;18.59;63.97
6393;BME280;3229;42.674;23.282;2023-09-12T05:34:14;94901.06;;;18.79;62.80
6393;BME280;3229;42.674;23.282;2023-09-12T05:36:41;94904.72;;;19.06;62.01
6393;BME280;3229;42.674;23.282;2023-09-12T05:39:10;94907.31;;;19.27;61.63
6393;BME280;3229;42.674;23.282;2023-09-12T05:41:39;94907.09;;;19.50;61.08
6393;BME280;3229;42.674;23.282;2023-09-12T05:44:06;94909.66;;;19.65;59.92
6393;BME280;3229;42.674;23.282;2023-09-12T05:46:34;94908.44;;;19.68;59.75
6393;BME280;3229;42.674;23.282;2023-09-12T05:49:01;94887.00;;;19.59;59.64
6393;BME280;3229;42.674;23.282;2023-09-12T05:51:31;94907.59;;;19.89;58.83
6393;BME280;3229;42.674;23.282;2023-09-12T05:53:58;94912.66;;;19.97;58.32
6393;BME280;3229;42.674;23.282;2023-09-12T05:56:30;94895.94;;;20.06;58.39
6393;BME280;3229;42.674;23.282;2023-09-12T05:58:57;94911.81;;;20.24;57.68
6393;BME280;3229;42.674;23.282;2023-09-12T06:01:25;94907.75;;;20.50;57.10
6393;BME280;3229;42.674;23.282;2023-09-12T06:03:53;94907.47;;;20.79;57.11
6393;BME280;3229;42.674;23.282;2023-09-12T06:06:20;94911.38;;;21.17;56.33
6393;BME280;3229;42.674;23.282;2023-09-12T06:08:48;94900.63;;;21.46;54.29
6393;BME280;3229;42.674;23.282;2023-09-12T06:11:15;94905.81;;;21.53;54.09
6393;BME280;3229;42.674;23.282;2023-09-12T06:13:41;94907.22;;;21.62;53.89
6393;BME280;3229;42.674;23.282;2023-09-12T06:16:08;94923.44;;;21.84;53.11
6393;BME280;3229;42.674;23.282;2023-09-12T06:18:35;94910.41;;;21.91;52.43
6393;BME280;3229;42.674;23.282;2023-09-12T06:21:03;94914.22;;;21.95;52.57
6393;BME280;3229;42.674;23.282;2023-09-12T06:23:33;94922.81;;;22.28;51.61
6393;BME280;3229;42.674;23.282;2023-09-12T06:26:00;94926.78;;;22.31;51.49
6393;BME280;3229;42.674;23.282;2023-09-12T06:28:28;94921.97;;;22.41;51.54
6393;BME280;3229;42.674;23.282;2023-09-12T06:30:55;94927.16;;;22.48;51.11
6393;BME280;3229;42.674;23.282;2023-09-12T06:33:22;94933.94;;;22.56;51.19
6393;BME280;3229;42.674;23.282;2023-09-12T06:35:49;94921.47;;;22.64;50.33
6393;BME280;3229;42.674;23.282;2023-09-12T06:38:19;94934.69;;;22.76;50.54
6393;BME280;3229;42.674;23.282;2023-09-12T06:40:46;94930.38;;;22.88;49.98
6393;BME280;3229;42.674;23.282;2023-09-12T06:43:14;94931.53;;;23.06;49.47
6393;BME280;3229;42.674;23.282;2023-09-12T06:45:41;94931.28;;;23.20;49.43
6393;BME280;3229;42.674;23.282;2023-09-12T06:48:07;94934.56;;;23.41;49.13
6393;BME280;3229;42.674;23.282;2023-09-12T06:50:35;94931.78;;;23.61;48.08
6393;BME280;3229;42.674;23.282;2023-09-12T06:53:06;94933.00;;;23.65;47.51
6393;BME280;3229;42.674;23.282;2023-09-12T06:55:37;94928.81;;;23.57;47.81
6393;BME280;3229;42.674;23.282;2023-09-12T06:58:05;94930.56;;;23.63;47.47
6393;BME280;3229;42.674;23.282;2023-09-12T07:00:33;94940.34;;;23.74;47.00
6393;BME280;3229;42.674;23.282;2023-09-12T07:03:00;94937.47;;;23.83;46.96
6393;BME280;3229;42.674;23.282;2023-09-12T07:05:26;94935.38;;;23.91;46.16
6393;BME280;3229;42.674;23.282;2023-09-12T07:07:53;94936.41;;;23.90;46.78
6393;BME280;3229;42.674;23.282;2023-09-12T07:10:20;94941.75;;;24.02;46.38
6393;BME280;3229;42.674;23.282;2023-09-12T07:12:48;94940.09;;;24.26;46.43
6393;BME280;3229;42.674;23.282;2023-09-12T07:15:15;94939.25;;;24.32;46.18
6393;BME280;3229;42.674;23.282;2023-09-12T07:17:42;94942.91;;;24.49;45.23
6393;BME280;3229;42.674;23.282;2023-09-12T07:20:10;94933.75;;;24.59;45.28
6393;BME280;3229;42.674;23.282;2023-09-12T07:22:38;94938.09;;;24.65;45.25
6393;BME280;3229;42.674;23.282;2023-09-12T07:25:06;94905.38;;;24.44;44.71
6393;BME280;3229;42.674;23.282;2023-09-12T07:27:34;94884.53;;;24.31;44.67
6393;BME280;3229;42.674;23.282;2023-09-12T07:30:03;94945.16;;;24.64;44.94
6393;BME280;3229;42.674;23.282;2023-09-12T07:32:30;94946.25;;;24.75;44.11
6393;BME280;3229;42.674;23.282;2023-09-12T07:34:57;94950.03;;;24.79;44.40
6393;BME280;3229;42.674;23.282;2023-09-12T07:37:23;94935.56;;;24.76;44.70
6393;BME280;3229;42.674;23.282;2023-09-12T07:39:50;94952.59;;;24.97;43.83
6393;BME280;3229;42.674;23.282;2023-09-12T07:42:21;94949.28;;;25.09;43.80
6393;BME280;3229;42.674;23.282;2023-09-12T07:44:48;94939.44;;;25.22;43.13
6393;BME280;3229;42.674;23.282;2023-09-12T07:47:16;94944.50;;;25.47;43.20
6393;BME280;3229;42.674;23.282;2023-09-12T07:49:43;94933.72;;;25.67;42.62
6393;BME280;3229;42.674;23.282;2023-09-12T07:52:09;94933.84;;;25.72;42.38
6393;BME280;3229;42.674;23.282;2023-09-12T07:54:36;94931.34;;;25.77;42.55
6393;BME280;3229;42.674;23.282;2023-09-12T07:57:03;94923.53;;;25.89;41.84
6393;BME280;3229;42.674;23.282;2023-09-12T07:59:30;94935.84;;;26.00;41.34
6393;BME280;3229;42.674;23.282;2023-09-12T08:01:57;94935.84;;;26.12;41.55
6393;BME280;3229;42.674;23.282;2023-09-12T08:04:25;94933.00;;;26.14;41.73
6393;BME280;3229;42.674;23.282;2023-09-12T08:06:52;94928.75;;;26.24;41.15
6393;BME280;3229;42.674;23.282;2023-09-12T08:09:19;94923.97;;;26.57;40.67
6393;BME280;3229;42.674;23.282;2023-09-12T08:11:45;94929.22;;;26.85;40.27
6393;BME280;3229;42.674;23.282;2023-09-12T08:14:12;94941.72;;;27.07;40.07
6393;BME280;3229;42.674;23.282;2023-09-12T08:16:39;94939.09;;;27.07;39.39
6393;BME280;3229;42.674;23.282;2023-09-12T08:19:06;94931.69;;;27.04;39.92
6393;BME280;3229;42.674;23.282;2023-09-12T08:21:34;94926.19;;;27.17;38.94
6393;BME280;3229;42.674;23.282;2023-09-12T08:24:01;94937.72;;;27.16;39.12
6393;BME280;3229;42.674;23.282;2023-09-12T08:26:28;94935.34;;;27.02;38.91
6393;BME280;3229;42.674;23.282;2023-09-12T08:28:54;94930.94;;;26.91;39.05
6393;BME280;3229;42.674;23.282;2023-09-12T08:31:20;94934.53;;;27.02;39.03
6393;BME280;3229;42.674;23.282;2023-09-12T08:33:47;94929.66;;;26.94;39.32
6393;BME280;3229;42.674;23.282;2023-09-12T08:36:14;94924.22;;;26.84;39.48
6393;BME280;3229;42.674;23.282;2023-09-12T08:38:42;94923.78;;;26.87;38.75
6393;BME280;3229;42.674;23.282;2023-09-12T08:41:09;94926.31;;;26.82;39.03
6393;BME280;3229;42.674;23.282;2023-09-12T08:43:35;94917.94;;;26.85;39.07
6393;BME280;3229;42.674;23.282;2023-09-12T08:46:03;94911.69;;;26.86;39.11
6393;BME280;3229;42.674;23.282;2023-09-12T08:48:30;94921.19;;;27.04;39.00
6393;BME280;3229;42.674;23.282;2023-09-12T08:50:57;94919.91;;;27.06;38.48
6393;BME280;3229;42.674;23.282;2023-09-12T08:53:25;94911.50;;;27.04;38.35
6393;BME280;3229;42.674;23.282;2023-09-12T08:55:53;94915.13;;;27.15;38.30
6393;BME280;3229;42.674;23.282;2023-09-12T08:58:20;94923.22;;;27.13;37.45
6393;BME280;3229;42.674;23.282;2023-09-12T09:00:49;94919.69;;;27.08;37.82
6393;BME280;3229;42.674;23.282;2023-09-12T09:03:16;94924.56;;;27.16;37.71
6393;BME280;3229;42.674;23.282;2023-09-12T09:05:44;94906.69;;;27.01;37.97
6393;BME280;3229;42.674;23.282;2023-09-12T09:08:13;94921.75;;;27.17;37.77
6393;BME280;3229;42.674;23.282;2023-09-12T09:10:55;94918.09;;;27.35;37.41
6393;BME280;3229;42.674;23.282;2023-09-12T09:13:23;94913.91;;;27.51;37.36
6393;BME280;3229;42.674;23.282;2023-09-12T09:16:09;94915.19;;;27.65;36.53
6393;BME280;3229;42.674;23.282;2023-09-12T09:18:49;94909.56;;;27.73;36.48
6393;BME280;3229;42.674;23.282;2023-09-12T09:21:17;94907.81;;;27.79;36.69
6393;BME280;3229;42.674;23.282;2023-09-12T09:23:45;94908.19;;;27.88;36.23
6393;BME280;3229;42.674;23.282;2023-09-12T09:26:13;94902.06;;;27.82;36.71
6393;BME280;3229;42.674;23.282;2023-09-12T09:28:40;94904.75;;;27.70;36.38
6393;BME280;3229;42.674;23.282;2023-09-12T09:31:10;94893.53;;;27.75;36.63
6393;BME280;3229;42.674;23.282;2023-09-12T09:33:39;94889.97;;;27.81;36.28
6393;BME280;3229;42.674;23.282;2023-09-12T09:36:07;94893.16;;;27.83;36.43
6393;BME280;3229;42.674;23.282;2023-09-12T09:38:34;94871.25;;;27.78;36.70
6393;BME280;3229;42.674;23.282;2023-09-12T09:41:04;94887.81;;;27.78;36.73
6393;BME280;3229;42.674;23.282;2023-09-12T09:43:33;94886.78;;;27.79;37.05
6393;BME280;3229;42.674;23.282;2023-09-12T09:46:00;94886.53;;;27.81;37.15
6393;BME280;3229;42.674;23.282;2023-09-12T09:48:28;94887.09;;;27.83;36.92
6393;BME280;3229;42.674;23.282;2023-09-12T09:51:00;94876.19;;;27.74;36.60
6393;BME280;3229;42.674;23.282;2023-09-12T09:53:27;94880.47;;;27.80;36.58
6393;BME280;3229;42.674;23.282;2023-09-12T09:56:07;94878.41;;;27.82;36.55
6393;BME280;3229;42.674;23.282;2023-09-12T09:58:35;94878.63;;;27.81;36.64
6393;BME280;3229;42.674;23.282;2023-09-12T10:01:05;94872.78;;;27.73;37.06
6393;BME280;3229;42.674;23.282;2023-09-12T10:03:35;94870.84;;;27.69;36.58
6393;BME280;3229;42.674;23.282;2023-09-12T10:06:04;94871.88;;;27.68;36.50
6393;BME280;3229;42.674;23.282;2023-09-12T10:08:32;94873.84;;;27.61;36.40
6393;BME280;3229;42.674;23.282;2023-09-12T10:10:58;94857.28;;;27.60;36.80
6393;BME280;3229;42.674;23.282;2023-09-12T10:13:27;94860.53;;;27.67;36.30
6393;BME280;3229;42.674;23.282;2023-09-12T10:16:00;94861.38;;;27.68;36.38
6393;BME280;3229;42.674;23.282;2023-09-12T10:18:35;94857.28;;;27.60;36.59
6393;BME280;3229;42.674;23.282;2023-09-12T10:21:10;94852.03;;;27.60;36.84
6393;BME280;3229;42.674;23.282;2023-09-12T10:23:44;94796.97;;;27.32;36.85
6393;BME280;3229;42.674;23.282;2023-09-12T10:26:11;94852.53;;;27.74;37.10
6393;BME280;3229;42.674;23.282;2023-09-12T10:28:40;94844.25;;;27.82;36.45
6393;BME280;3229;42.674;23.282;2023-09-12T10:31:08;94839.13;;;27.92;36.38
6393;BME280;3229;42.674;23.282;2023-09-12T10:33:37;94845.25;;;27.98;36.31
6393;BME280;3229;42.674;23.282;2023-09-12T10:36:06;94847.63;;;27.99;36.50
6393;BME280;3229;42.674;23.282;2023-09-12T10:38:40;94835.63;;;27.87;36.23
6393;BME280;3229;42.674;23.282;2023-09-12T10:41:11;94837.94;;;27.83;36.90
6393;BME280;3229;42.674;23.282;2023-09-12T10:43:39;94822.22;;;27.71;36.89
6393;BME280;3229;42.674;23.282;2023-09-12T10:46:07;94839.22;;;27.81;36.86
6393;BME280;3229;42.674;23.282;2023-09-12T10:48:36;94828.28;;;27.89;36.42
6393;BME280;3229;42.674;23.282;2023-09-12T10:51:06;94827.44;;;27.83;37.01
6393;BME280;3229;42.674;23.282;2023-09-12T10:53:33;94825.38;;;27.85;36.66
6393;BME280;3229;42.674;23.282;2023-09-12T10:56:13;94821.13;;;27.84;36.46
6393;BME280;3229;42.674;23.282;2023-09-12T10:59:14;94817.47;;;27.85;36.60
6393;BME280;3229;42.674;23.282;2023-09-12T11:01:42;94818.75;;;27.83;36.29
6393;BME280;3229;42.674;23.282;2023-09-12T11:04:42;94806.03;;;27.74;36.15
6393;BME280;3229;42.674;23.282;2023-09-12T11:07:30;94806.66;;;27.82;36.36
6393;BME280;3229;42.674;23.282;2023-09-12T11:10:20;94806.72;;;27.87;36.36
6393;BME280;3229;42.674;23.282;2023-09-12T11:12:49;94803.72;;;28.00;36.32
6393;BME280;3229;42.674;23.282;2023-09-12T11:15:16;94808.00;;;28.06;36.83
6393;BME280;3229;42.674;23.282;2023-09-12T11:17:45;94807.28;;;28.11;36.50
6393;BME280;3229;42.674;23.282;2023-09-12T11:20:15;94808.38;;;28.15;36.47
6393;BME280;3229;42.674;23.282;2023-09-12T11:22:43;94802.56;;;28.13;36.31
6393;BME280;3229;42.674;23.282;2023-09-12T11:25:17;94804.91;;;28.09;36.65
6393;BME280;3229;42.674;23.282;2023-09-12T11:27:46;94803.94;;;28.15;36.64
6393;BME280;3229;42.674;23.282;2023-09-12T11:30:28;94798.69;;;28.15;36.25
6393;BME280;3229;42.674;23.282;2023-09-12T11:32:57;94804.16;;;28.14;35.94
6393;BME280;3229;42.674;23.282;2023-09-12T11:35:28;94795.84;;;28.22;36.17
6393;BME280;3229;42.674;23.282;2023-09-12T11:37:56;94792.72;;;28.25;36.24
6393;BME280;3229;42.674;23.282;2023-09-12T11:40:24;94788.88;;;28.33;35.90
6393;BME280;3229;42.674;23.282;2023-09-12T11:42:54;94787.03;;;28.33;36.10
6393;BME280;3229;42.674;23.282;2023-09-12T11:45:22;94785.75;;;28.36;35.84
6393;BME280;3229;42.674;23.282;2023-09-12T11:47:49;94787.03;;;28.33;35.83
6393;BME280;3229;42.674;23.282;2023-09-12T11:50:27;94781.13;;;28.43;35.17
6393;BME280;3229;42.674;23.282;2023-09-12T11:53:01;94783.44;;;28.39;35.00
6393;BME280;3229;42.674;23.282;2023-09-12T11:55:31;94777.91;;;28.41;34.61
6393;BME280;3229;42.674;23.282;2023-09-12T11:57:58;94777.88;;;28.36;34.86
6393;BME280;3229;42.674;23.282;2023-09-12T12:00:25;94773.47;;;28.41;34.77
6393;BME280;3229;42.674;23.282;2023-09-12T12:02:53;94768.50;;;28.45;34.36
6393;BME280;3229;42.674;23.282;2023-09-12T12:05:20;94769.38;;;28.50;34.73
6393;BME280;3229;42.674;23.282;2023-09-12T12:07:50;94760.59;;;28.45;34.15
6393;BME280;3229;42.674;23.282;2023-09-12T12:10:17;94758.41;;;28.37;34.62
6393;BME280;3229;42.674;23.282;2023-09-12T12:12:45;94768.56;;;28.50;33.58
6393;BME280;3229;42.674;23.282;2023-09-12T12:15:13;94772.75;;;28.46;33.95
6393;BME280;3229;42.674;23.282;2023-09-12T12:17:40;94769.06;;;28.47;34.11
6393;BME280;3229;42.674;23.282;2023-09-12T12:20:09;94761.69;;;28.49;34.41
6393;BME280;3229;42.674;23.282;2023-09-12T12:22:36;94763.53;;;28.48;34.25
6393;BME280;3229;42.674;23.282;2023-09-12T12:25:10;94761.16;;;28.47;34.36
6393;BME280;3229;42.674;23.282;2023-09-12T12:27:37;94758.53;;;28.47;34.01
6393;BME280;3229;42.674;23.282;2023-09-12T12:30:06;94759.50;;;28.41;34.83
6393;BME280;3229;42.674;23.282;2023-09-12T12:32:34;94760.56;;;28.40;34.88
6393;BME280;3229;42.674;23.282;2023-09-12T12:35:01;94755.59;;;28.43;35.14
6393;BME280;3229;42.674;23.282;2023-09-12T12:37:29;94755.91;;;28.47;35.27
6393;BME280;3229;42.674;23.282;2023-09-12T12:39:57;94753.56;;;28.50;35.53
6393;BME280;3229;42.674;23.282;2023-09-12T12:42:28;94756.25;;;28.56;35.68
6393;BME280;3229;42.674;23.282;2023-09-12T12:44:59;94749.97;;;28.62;35.25
6393;BME280;3229;42.674;23.282;2023-09-12T12:47:29;94753.19;;;28.64;34.90
6393;BME280;3229;42.674;23.282;2023-09-12T12:49:57;94730.19;;;28.54;34.77
6393;BME280;3229;42.674;23.282;2023-09-12T12:52:24;94749.75;;;28.63;34.65
6393;BME280;3229;42.674;23.282;2023-09-12T12:54:51;94744.50;;;28.63;34.32
6393;BME280;3229;42.674;23.282;2023-09-12T12:57:20;94739.22;;;28.63;34.13
6393;BME280;3229;42.674;23.282;2023-09-12T12:59:50;94740.78;;;28.59;34.79
6393;BME280;3229;42.674;23.282;2023-09-12T13:02:17;94709.59;;;28.46;34.72
6393;BME280;3229;42.674;23.282;2023-09-12T13:04:44;94732.63;;;28.61;34.75
6393;BME280;3229;42.674;23.282;2023-09-12T13:07:12;94732.63;;;28.61;35.33
6393;BME280;3229;42.674;23.282;2023-09-12T13:09:39;94739.75;;;28.65;35.06
6393;BME280;3229;42.674;23.282;2023-09-12T13:12:07;94734.22;;;28.67;34.98
6393;BME280;3229;42.674;23.282;2023-09-12T13:14:39;94714.94;;;28.56;35.12
6393;BME280;3229;42.674;23.282;2023-09-12T13:17:07;94730.59;;;28.68;35.44